createdAt,value
2018-09-17T00:02:28.133Z,54.0
2018-09-17T00:07:27.503Z,53.9
2018-09-17T00:12:28.162Z,53.8
2018-09-17T00:17:28.194Z,53.9
2018-09-17T00:22:27.592Z,53.8
2018-09-17T00:27:27.576Z,53.6
2018-09-17T00:32:27.923Z,53.6
2018-09-17T00:37:28.473Z,53.7
2018-09-17T00:42:27.800Z,54.0
2018-09-17T00:47:28.054Z,53.9
2018-09-17T00:52:27.767Z,54.0
2018-09-17T00:57:27.419Z,53.8
2018-09-17T01:02:27.258Z,53.7
2018-09-17T01:07:27.887Z,53.6
2018-09-17T01:12:27.889Z,53.5
2018-09-17T01:17:28.412Z,53.4
2018-09-17T01:22:27.912Z,53.4
2018-09-17T01:27:27.810Z,53.4
2018-09-17T01:32:28.152Z,53.5
2018-09-17T01:37:28.713Z,53.5
2018-09-17T01:42:28.248Z,53.6
2018-09-17T01:47:27.086Z,53.5
2018-09-17T01:52:28.122Z,53.5
2018-09-17T01:57:27.077Z,53.4
2018-09-17T02:02:28.033Z,53.4
2018-09-17T02:07:27.939Z,53.4
2018-09-17T02:12:27.761Z,53.4
2018-09-17T02:17:28.413Z,53.3
2018-09-17T02:22:27.332Z,53.3
2018-09-17T02:27:28.197Z,53.4
2018-09-17T02:32:27.680Z,53.4
2018-09-17T02:37:28.232Z,52.7
2018-09-17T02:42:27.905Z,53.2
2018-09-17T02:47:28.161Z,53.3
2018-09-17T02:52:28.050Z,53.3
2018-09-17T02:57:28.116Z,53.1
2018-09-17T03:02:27.942Z,53.1
2018-09-17T03:07:27.992Z,53.2
2018-09-17T03:12:28.127Z,53.2
2018-09-17T03:17:27.840Z,53.3
2018-09-17T03:22:27.862Z,53.2
2018-09-17T03:27:28.129Z,53.2
2018-09-17T03:32:29.282Z,53.1
2018-09-17T03:37:28.060Z,53.1
2018-09-17T03:42:28.227Z,53.1
2018-09-17T03:47:28.270Z,53.1
2018-09-17T03:52:27.166Z,53.2
2018-09-17T03:57:27.399Z,53.3
2018-09-17T04:02:27.269Z,53.3
2018-09-17T04:07:27.758Z,53.3
2018-09-17T04:12:28.250Z,53.2
2018-09-17T04:17:28.105Z,53.2
2018-09-17T04:22:27.847Z,53.2
2018-09-17T04:27:28.317Z,53.3
2018-09-17T04:32:28.446Z,53.3
2018-09-17T04:37:28.166Z,53.3
2018-09-17T04:42:28.430Z,53.2
2018-09-17T04:47:27.912Z,53.2
2018-09-17T04:52:28.955Z,53.1
2018-09-17T04:57:28.977Z,53.1
2018-09-17T05:02:28.620Z,53.0
2018-09-17T05:07:27.915Z,52.9
2018-09-17T05:12:28.584Z,53.1
2018-09-17T05:17:29.445Z,53.0
2018-09-17T05:22:28.214Z,52.9
2018-09-17T05:27:29.233Z,52.9
2018-09-17T05:32:29.246Z,52.9
2018-09-17T05:37:28.726Z,52.9
2018-09-17T05:42:27.631Z,52.7
2018-09-17T05:47:27.872Z,52.6
2018-09-17T05:52:28.329Z,52.4
2018-09-17T05:57:28.489Z,52.4
2018-09-17T06:02:28.009Z,52.4
2018-09-17T06:07:29.291Z,52.2
2018-09-17T06:12:27.962Z,52.1
2018-09-17T06:17:28.620Z,52.0
2018-09-17T06:22:28.754Z,51.9
2018-09-17T06:27:28.407Z,52.0
2018-09-17T06:32:29.091Z,52.0
2018-09-17T06:37:28.616Z,51.7
2018-09-17T06:42:28.356Z,51.7
2018-09-17T06:47:28.817Z,51.7
2018-09-17T06:52:28.477Z,51.9
2018-09-17T06:57:28.043Z,51.8
2018-09-17T07:02:28.653Z,52.0
2018-09-17T07:07:28.582Z,52.0
2018-09-17T07:12:28.479Z,52.0
2018-09-17T07:17:28.871Z,52.2
2018-09-17T07:22:28.288Z,52.2
2018-09-17T07:27:27.867Z,52.2
2018-09-17T07:32:28.592Z,52.4
2018-09-17T07:37:29.056Z,52.4
2018-09-17T07:42:28.340Z,52.5
2018-09-17T07:47:29.779Z,52.7
2018-09-17T07:52:28.038Z,52.8
2018-09-17T07:57:28.419Z,52.8
2018-09-17T08:02:27.650Z,53.0
2018-09-17T08:07:28.470Z,53.1
2018-09-17T08:12:28.987Z,53.3
2018-09-17T08:17:28.190Z,53.4
2018-09-17T08:22:28.588Z,53.6
2018-09-17T08:27:27.677Z,53.8
2018-09-17T08:32:28.510Z,53.9
2018-09-17T08:37:29.054Z,54.1
2018-09-17T08:42:28.410Z,54.3
2018-09-17T08:47:27.982Z,54.7
2018-09-17T08:52:28.362Z,54.7
2018-09-17T08:57:28.886Z,54.7
2018-09-17T09:02:28.680Z,54.9
2018-09-17T09:07:27.932Z,55.1
2018-09-17T09:12:28.856Z,55.1
2018-09-17T09:17:28.967Z,55.5
2018-09-17T09:22:27.829Z,55.6
2018-09-17T09:27:28.532Z,55.6
2018-09-17T09:32:28.641Z,55.5
2018-09-17T09:37:28.402Z,56.0
2018-09-17T09:42:27.745Z,56.0
2018-09-17T09:47:28.473Z,56.4
2018-09-17T09:52:28.251Z,56.3
2018-09-17T09:57:28.786Z,56.5
2018-09-17T10:02:27.976Z,56.4
2018-09-17T10:07:28.152Z,56.9
2018-09-17T10:12:29.208Z,56.5
2018-09-17T10:17:28.682Z,56.7
2018-09-17T10:22:28.069Z,57.2
2018-09-17T10:27:28.673Z,57.1
2018-09-17T10:32:28.217Z,57.0
2018-09-17T10:37:29.833Z,57.1
2018-09-17T10:42:28.161Z,56.7
2018-09-17T10:47:28.424Z,57.0
2018-09-17T10:52:28.866Z,57.5
2018-09-17T10:57:28.067Z,57.5
2018-09-17T11:02:28.755Z,57.5
2018-09-17T11:07:28.475Z,57.6
2018-09-17T11:12:29.434Z,57.5
2018-09-17T11:17:28.694Z,57.7
2018-09-17T11:22:28.702Z,58.2
2018-09-17T11:27:28.759Z,58.2
2018-09-17T11:32:28.699Z,58.2
2018-09-17T11:37:29.007Z,58.2
2018-09-17T11:42:28.472Z,58.0
2018-09-17T11:47:28.193Z,57.5
2018-09-17T11:52:28.238Z,58.1
2018-09-17T11:57:28.096Z,57.5
2018-09-17T12:02:28.284Z,57.8
2018-09-17T12:07:28.957Z,57.5
2018-09-17T12:12:27.899Z,57.5
2018-09-17T12:17:28.522Z,57.4
2018-09-17T12:22:29.306Z,57.5
2018-09-17T12:27:28.875Z,56.8
2018-09-17T12:32:29.392Z,57.2
2018-09-17T12:37:27.842Z,57.8
2018-09-17T12:42:28.106Z,57.9
2018-09-17T12:47:28.655Z,57.4
2018-09-17T12:52:28.069Z,58.0
2018-09-17T12:57:28.237Z,57.0
2018-09-17T13:02:28.024Z,56.1
2018-09-17T13:07:28.022Z,57.7
2018-09-17T13:12:28.576Z,58.0
2018-09-17T13:17:28.193Z,58.2
2018-09-17T13:22:28.124Z,57.3
2018-09-17T13:27:28.711Z,57.4
2018-09-17T13:32:28.136Z,56.8
2018-09-17T13:37:27.960Z,58.0
2018-09-17T13:42:28.121Z,58.1
2018-09-17T13:47:29.703Z,58.3
2018-09-17T13:52:29.144Z,57.9
2018-09-17T13:57:28.548Z,57.8
2018-09-17T14:02:28.965Z,58.1
2018-09-17T14:07:28.404Z,57.3
2018-09-17T14:12:28.532Z,57.3
2018-09-17T14:17:28.566Z,57.1
2018-09-17T14:22:28.350Z,55.2
2018-09-17T14:27:29.041Z,55.2
2018-09-17T14:32:28.387Z,53.2
2018-09-17T14:37:29.468Z,52.8
2018-09-17T14:42:28.590Z,51.3
2018-09-17T14:47:28.473Z,49.5
2018-09-17T14:52:28.453Z,50.1
2018-09-17T14:57:28.673Z,49.6
2018-09-17T15:02:27.918Z,48.8
2018-09-17T15:07:28.392Z,46.9
2018-09-17T15:12:28.186Z,44.9
2018-09-17T15:17:28.549Z,45.0
2018-09-17T15:22:28.975Z,44.5
2018-09-17T15:27:28.643Z,44.0
2018-09-17T15:32:28.760Z,44.1
2018-09-17T15:37:28.155Z,44.1
2018-09-17T15:42:28.485Z,44.1
2018-09-17T15:47:28.537Z,43.2
2018-09-17T15:52:28.004Z,43.3
2018-09-17T15:57:27.617Z,43.3
2018-09-17T16:02:28.344Z,43.6
2018-09-17T16:07:28.502Z,44.5
2018-09-17T16:12:27.964Z,44.5
2018-09-17T16:17:27.768Z,44.6
2018-09-17T16:22:28.560Z,45.1
2018-09-17T16:27:28.419Z,44.9
2018-09-17T16:32:28.709Z,45.6
2018-09-17T16:37:28.564Z,45.4
2018-09-17T16:42:28.280Z,46.3
2018-09-17T16:47:28.625Z,47.1
2018-09-17T16:52:28.492Z,47.1
2018-09-17T16:57:28.103Z,47.7
2018-09-17T17:02:28.090Z,48.3
2018-09-17T17:07:28.039Z,49.5
2018-09-17T17:12:28.214Z,50.1
2018-09-17T17:17:28.453Z,51.1
2018-09-17T17:22:28.520Z,50.9
2018-09-17T17:27:27.659Z,52.8
2018-09-17T17:32:27.858Z,54.3
2018-09-17T17:37:27.657Z,55.4
2018-09-17T17:42:28.252Z,56.1
2018-09-17T17:47:29.033Z,56.2
2018-09-17T17:52:27.924Z,56.2
2018-09-17T17:57:28.675Z,55.9
2018-09-17T18:02:28.585Z,55.7
2018-09-17T18:07:28.052Z,55.1
2018-09-17T18:12:28.879Z,55.0
2018-09-17T18:17:29.542Z,54.6
2018-09-17T18:22:28.024Z,54.5
2018-09-17T18:27:28.030Z,54.3
2018-09-17T18:32:27.224Z,54.0
2018-09-17T18:37:27.935Z,54.0
2018-09-17T18:42:28.342Z,53.7
2018-09-17T18:47:27.998Z,53.6
2018-09-17T18:52:27.982Z,53.6
2018-09-17T18:57:28.491Z,53.6
2018-09-17T19:02:27.962Z,53.6
2018-09-17T19:07:27.910Z,53.5
2018-09-17T19:12:27.883Z,53.5
2018-09-17T19:17:28.411Z,53.4
2018-09-17T19:22:27.933Z,53.5
2018-09-17T19:27:28.177Z,53.5
2018-09-17T19:32:29.804Z,53.5
2018-09-17T19:37:28.007Z,53.4
2018-09-17T19:42:28.459Z,53.3
2018-09-17T19:47:28.754Z,53.2
2018-09-17T19:52:28.113Z,53.2
2018-09-17T19:57:28.178Z,53.2
2018-09-17T20:02:28.067Z,53.1
2018-09-17T20:07:27.461Z,53.1
2018-09-17T20:12:27.836Z,53.0
2018-09-17T20:17:28.039Z,52.9
2018-09-17T20:22:27.837Z,52.9
2018-09-17T20:27:28.026Z,53.0
2018-09-17T20:32:28.105Z,52.9
2018-09-17T20:37:28.124Z,52.9
2018-09-17T20:42:27.658Z,52.8
2018-09-17T20:47:27.837Z,52.8
2018-09-17T20:52:28.302Z,52.6
2018-09-17T20:57:27.656Z,52.6
2018-09-17T21:02:27.959Z,52.7
2018-09-17T21:07:28.229Z,52.5
2018-09-17T21:12:28.784Z,52.4
2018-09-17T21:17:27.721Z,52.4
2018-09-17T21:22:27.783Z,52.4
2018-09-17T21:27:28.281Z,52.4
2018-09-17T21:32:28.241Z,52.2
2018-09-17T21:37:29.645Z,52.2
2018-09-17T21:42:27.568Z,52.3
2018-09-17T21:47:28.473Z,52.2
2018-09-17T21:52:27.609Z,52.2
2018-09-17T21:57:28.195Z,52.0
2018-09-17T22:02:28.625Z,52.0
2018-09-17T22:07:28.230Z,52.1
2018-09-17T22:12:27.678Z,52.0
2018-09-17T22:22:45.150Z,51.5
2018-09-17T22:27:44.131Z,51.9
2018-09-17T22:32:44.243Z,51.9
2018-09-17T22:37:43.820Z,51.8
2018-09-17T22:42:43.664Z,51.8
2018-09-17T22:47:44.433Z,51.8
2018-09-17T22:52:44.439Z,51.8
2018-09-17T22:57:44.370Z,51.8
2018-09-17T23:02:44.169Z,51.8
2018-09-17T23:07:44.639Z,51.6
2018-09-17T23:12:27.305Z,51.7
2018-09-17T23:17:27.174Z,51.7
2018-09-17T23:22:28.662Z,51.6
2018-09-17T23:27:27.325Z,51.7
2018-09-17T23:32:28.387Z,51.6
2018-09-17T23:37:27.650Z,51.5
2018-09-17T23:42:28.410Z,51.6
2018-09-17T23:47:27.359Z,51.5
2018-09-17T23:52:27.705Z,51.5
2018-09-17T23:57:28.910Z,51.4
